Time;durP1;ratioP1;P1;durP2;ratioP2;P2;SDS_P1;SDS_P2;PMS_P1;PMS_P2;Temp;Humidity;BMP_temperature;BMP_pressure;BME280_temperature;BME280_humidity;BME280_pressure;Samples;Min_cycle;Max_cycle;Signal;HPM_P1;HPM_P2
2022/09/14 00:02:45;;;;;;;0.40;0.40;;;12.80;99.90;;;;;;4977456;28;1079949;-67
2022/09/14 00:05:35;;;;;;;0.40;0.40;;;12.80;99.90;;;;;;5016434;28;20209;-65
2022/09/14 00:08:23;;;;;;;0.50;0.50;;;12.70;99.90;;;;;;5016065;28;20503;-67
2022/09/14 00:11:14;;;;;;;0.40;0.40;;;12.70;99.90;;;;;;5015324;28;20460;-67
2022/09/14 00:14:04;;;;;;;0.40;0.40;;;12.60;99.90;;;;;;5016291;28;21005;-66
2022/09/14 00:16:52;;;;;;;0.40;0.40;;;12.60;99.90;;;;;;5016149;28;20448;-67
2022/09/14 00:19:40;;;;;;;0.40;0.40;;;12.50;99.90;;;;;;5016259;28;20430;-67
2022/09/14 00:22:30;;;;;;;0.40;0.40;;;12.50;99.90;;;;;;5016243;28;20422;-66
2022/09/14 00:25:18;;;;;;;0.40;0.40;;;12.50;99.90;;;;;;5016340;28;20517;-67
2022/09/14 00:28:06;;;;;;;0.40;0.40;;;12.50;99.90;;;;;;5015355;28;20644;-66
2022/09/14 00:30:54;;;;;;;0.40;0.40;;;12.50;99.90;;;;;;5015299;28;20461;-67
2022/09/14 00:33:43;;;;;;;0.40;0.40;;;12.40;99.90;;;;;;5015320;28;20484;-67
2022/09/14 00:36:33;;;;;;;0.40;0.40;;;12.40;99.90;;;;;;5016066;28;20492;-66
2022/09/14 00:39:24;;;;;;;0.50;0.50;;;12.40;99.90;;;;;;5016096;28;20508;-67
2022/09/14 00:42:18;;;;;;;0.40;0.40;;;12.40;99.90;;;;;;5016203;28;20421;-66
2022/09/14 00:45:13;;;;;;;0.40;0.40;;;12.30;99.90;;;;;;5015683;28;20426;-67
2022/09/14 00:48:01;;;;;;;0.40;0.40;;;12.30;99.90;;;;;;5015736;28;20607;-66
2022/09/14 00:50:49;;;;;;;0.40;0.40;;;12.30;99.90;;;;;;5014980;28;21004;-66
2022/09/14 00:53:37;;;;;;;0.40;0.40;;;12.40;99.90;;;;;;5015612;28;20541;-67
2022/09/14 00:56:27;;;;;;;0.40;0.40;;;12.30;99.90;;;;;;5015660;28;20515;-67
2022/09/14 00:59:19;;;;;;;0.50;0.50;;;12.30;99.90;;;;;;5015191;28;20513;-67
2022/09/14 01:02:10;;;;;;;0.40;0.40;;;12.30;99.90;;;;;;5015799;28;20513;-66
2022/09/14 01:04:58;;;;;;;0.40;0.40;;;12.20;99.90;;;;;;5015179;28;20436;-66
2022/09/14 01:08:07;;;;;;;0.40;0.40;;;12.20;99.90;;;;;;5015712;28;20869;-66
2022/09/14 01:11:21;;;;;;;0.40;0.40;;;12.20;99.90;;;;;;5015052;28;20425;-66
2022/09/14 01:14:17;;;;;;;0.70;0.70;;;12.10;99.90;;;;;;5013340;28;20500;-66
2022/09/14 01:17:11;;;;;;;0.40;0.40;;;12.10;99.90;;;;;;5042244;28;20424;-65
2022/09/14 01:20:20;;;;;;;0.40;0.40;;;12.10;99.90;;;;;;5054447;28;20434;-66
2022/09/14 01:23:13;;;;;;;0.40;0.40;;;12.10;99.90;;;;;;5053575;28;20448;-66
2022/09/14 01:26:23;;;;;;;0.40;0.40;;;12.10;99.90;;;;;;5055014;28;20524;-66
2022/09/14 01:29:16;;;;;;;0.50;0.50;;;12.10;99.90;;;;;;5054205;28;21032;-66
2022/09/14 01:32:10;;;;;;;0.40;0.40;;;12.10;99.90;;;;;;5054979;28;20511;-67
2022/09/14 01:35:05;;;;;;;0.40;0.40;;;12.10;99.90;;;;;;5054620;28;20456;-66
2022/09/14 01:37:57;;;;;;;0.40;0.40;;;12.10;99.90;;;;;;5054645;28;20412;-66
2022/09/14 01:40:48;;;;;;;0.40;0.40;;;12.10;99.90;;;;;;5054552;28;20951;-67
2022/09/14 01:43:39;;;;;;;0.40;0.40;;;12.10;99.90;;;;;;5054408;28;20476;-67
2022/09/14 01:46:33;;;;;;;0.40;0.40;;;12.10;99.90;;;;;;5054684;28;20690;-66
2022/09/14 01:49:26;;;;;;;0.50;0.50;;;12.10;99.90;;;;;;5054111;28;20555;-66
2022/09/14 01:52:20;;;;;;;0.40;0.40;;;12.20;99.90;;;;;;5054023;28;20452;-66
2022/09/14 01:55:13;;;;;;;0.40;0.40;;;12.20;99.90;;;;;;5054468;28;20467;-67
2022/09/14 01:58:05;;;;;;;0.40;0.40;;;12.10;99.90;;;;;;5054591;28;20424;-67
2022/09/14 02:00:55;;;;;;;0.40;0.40;;;12.10;99.90;;;;;;5054634;28;20432;-66
2022/09/14 02:03:51;;;;;;;0.40;0.40;;;12.10;99.90;;;;;;5054718;28;20479;-66
2022/09/14 02:06:42;;;;;;;0.40;0.40;;;12.10;99.90;;;;;;5059099;28;20435;-66
2022/09/14 02:09:31;;;;;;;0.40;0.40;;;12.00;99.90;;;;;;5057143;28;20948;-66
2022/09/14 02:12:19;;;;;;;0.40;0.40;;;12.00;99.90;;;;;;5057977;28;20799;-67
2022/09/14 02:15:10;;;;;;;0.40;0.40;;;12.00;99.90;;;;;;5058492;28;20420;-65
2022/09/14 02:17:59;;;;;;;0.40;0.40;;;;;;;;;;5057531;28;20805;-67
2022/09/14 02:20:52;;;;;;;0.40;0.40;;;11.90;99.90;;;;;;5057979;28;20523;-67
2022/09/14 02:23:40;;;;;;;0.40;0.40;;;11.90;99.90;;;;;;5057224;28;20531;-67
2022/09/14 02:26:29;;;;;;;0.40;0.40;;;11.90;99.90;;;;;;5057694;28;20487;-67
2022/09/14 02:29:17;;;;;;;0.40;0.40;;;11.90;99.90;;;;;;5057480;28;20474;-66
2022/09/14 02:32:15;;;;;;;0.40;0.40;;;11.80;99.90;;;;;;5057218;28;20523;-66
2022/09/14 02:35:12;;;;;;;0.40;0.40;;;11.80;99.90;;;;;;5058286;28;20569;-66
2022/09/14 02:38:08;;;;;;;0.40;0.40;;;11.80;99.90;;;;;;5057808;28;20443;-66
2022/09/14 02:41:01;;;;;;;0.40;0.40;;;11.80;99.90;;;;;;5057887;28;20430;-67
2022/09/14 02:43:55;;;;;;;0.50;0.50;;;11.80;99.90;;;;;;5057172;28;20531;-67
2022/09/14 02:46:54;;;;;;;0.40;0.40;;;11.70;99.90;;;;;;5057608;28;20461;-66
2022/09/14 02:49:48;;;;;;;0.40;0.40;;;11.70;99.90;;;;;;5057078;28;20464;-67
2022/09/14 02:52:51;;;;;;;0.40;0.40;;;11.70;99.90;;;;;;5056182;28;20804;-66
2022/09/14 02:55:46;;;;;;;0.40;0.40;;;11.70;99.90;;;;;;5057403;28;20999;-66
2022/09/14 02:58:35;;;;;;;0.40;0.40;;;11.70;99.90;;;;;;5055944;28;20555;-67
2022/09/14 03:01:24;;;;;;;0.40;0.40;;;11.70;99.90;;;;;;5057206;28;21201;-67
2022/09/14 03:04:12;;;;;;;0.60;0.60;;;11.70;99.90;;;;;;5056845;28;21003;-66
2022/09/14 03:07:00;;;;;;;0.40;0.40;;;11.70;99.90;;;;;;5056314;28;20919;-66
2022/09/14 03:09:48;;;;;;;0.40;0.40;;;11.70;99.90;;;;;;5056284;28;20892;-66
2022/09/14 03:12:39;;;;;;;0.40;0.40;;;11.70;99.90;;;;;;5057112;28;20511;-67
2022/09/14 03:15:28;;;;;;;0.40;0.40;;;11.70;99.90;;;;;;5057031;28;20504;-66
2022/09/14 03:18:16;;;;;;;0.40;0.40;;;11.70;99.90;;;;;;5057074;28;20956;-67
2022/09/14 03:21:06;;;;;;;0.40;0.40;;;11.70;99.90;;;;;;5055487;28;20451;-66
2022/09/14 03:23:56;;;;;;;0.40;0.40;;;11.70;99.90;;;;;;5056677;28;20513;-66
2022/09/14 03:26:46;;;;;;;0.50;0.50;;;11.70;99.90;;;;;;5056971;28;20570;-67
2022/09/14 03:29:35;;;;;;;0.40;0.40;;;11.70;99.90;;;;;;5055972;28;20550;-66
2022/09/14 03:32:23;;;;;;;0.50;0.50;;;11.60;99.90;;;;;;5056692;28;20519;-66
2022/09/14 03:35:12;;;;;;;0.40;0.40;;;11.60;99.90;;;;;;5056716;28;20420;-67
2022/09/14 03:38:02;;;;;;;0.40;0.40;;;11.60;99.90;;;;;;5056358;28;20452;-67
2022/09/14 03:40:50;;;;;;;0.40;0.40;;;11.60;99.90;;;;;;5055970;28;20946;-67
2022/09/14 03:43:38;;;;;;;0.40;0.40;;;11.60;99.90;;;;;;5056435;28;20448;-66
2022/09/14 03:46:27;;;;;;;0.40;0.40;;;11.60;99.90;;;;;;5056484;28;20997;-67
2022/09/14 03:49:16;;;;;;;0.50;0.50;;;11.60;99.90;;;;;;5056078;28;20542;-66
2022/09/14 03:52:04;;;;;;;0.40;0.40;;;11.60;99.90;;;;;;5055776;28;20420;-67
2022/09/14 03:54:52;;;;;;;0.40;0.40;;;11.50;99.90;;;;;;5057590;28;20463;-67
2022/09/14 03:57:40;;;;;;;0.40;0.40;;;11.50;99.90;;;;;;5054921;28;20420;-66
2022/09/14 04:00:28;;;;;;;0.40;0.40;;;11.50;99.90;;;;;;5054490;28;20499;-67
2022/09/14 04:03:18;;;;;;;1.03;1.03;;;11.50;99.90;;;;;;5055617;28;20628;-67
2022/09/14 04:06:07;;;;;;;0.40;0.40;;;11.60;99.90;;;;;;5055655;28;20967;-67
2022/09/14 04:08:55;;;;;;;0.40;0.40;;;11.60;99.90;;;;;;5054547;28;20468;-67
2022/09/14 04:11:43;;;;;;;0.40;0.40;;;11.60;99.90;;;;;;5055895;28;20452;-66
2022/09/14 04:14:31;;;;;;;0.40;0.40;;;11.50;99.90;;;;;;5055730;28;20531;-67
2022/09/14 04:17:19;;;;;;;0.40;0.40;;;11.50;99.90;;;;;;5055905;28;20428;-67
2022/09/14 04:20:09;;;;;;;0.40;0.40;;;11.50;99.90;;;;;;5056052;28;20558;-67
2022/09/14 04:22:57;;;;;;;0.40;0.40;;;11.50;99.90;;;;;;5056053;28;20458;-67
2022/09/14 04:25:45;;;;;;;0.40;0.40;;;11.50;99.90;;;;;;5055603;28;20945;-67
2022/09/14 04:28:33;;;;;;;0.40;0.40;;;11.40;99.90;;;;;;5054970;28;20570;-68
2022/09/14 04:31:22;;;;;;;0.50;0.50;;;11.50;99.90;;;;;;5054047;28;20465;-66
2022/09/14 04:34:11;;;;;;;0.40;0.40;;;11.50;99.90;;;;;;5055150;28;20445;-67
2022/09/14 04:37:01;;;;;;;0.40;0.40;;;11.50;99.90;;;;;;5055611;28;20514;-67
2022/09/14 04:39:49;;;;;;;0.40;0.40;;;11.50;99.90;;;;;;5055076;28;20424;-66
2022/09/14 04:42:37;;;;;;;0.40;0.40;;;11.50;99.90;;;;;;5054741;28;20447;-66
2022/09/14 04:45:25;;;;;;;0.60;0.60;;;11.40;99.90;;;;;;5055417;28;20452;-67
2022/09/14 04:48:14;;;;;;;0.40;0.40;;;11.40;99.90;;;;;;5055028;28;20515;-66
2022/09/14 04:51:03;;;;;;;0.40;0.40;;;11.40;99.90;;;;;;5054417;28;20464;-67
2022/09/14 04:53:55;;;;;;;0.40;0.40;;;11.40;99.90;;;;;;5055149;28;20529;-66
2022/09/14 04:56:43;;;;;;;0.40;0.40;;;11.40;99.90;;;;;;5054871;28;20421;-66
2022/09/14 04:59:32;;;;;;;0.40;0.40;;;11.40;99.90;;;;;;5054396;28;20428;-67
2022/09/14 05:02:20;;;;;;;0.40;0.40;;;11.50;99.90;;;;;;5053762;28;20499;-67
2022/09/14 05:05:08;;;;;;;0.40;0.40;;;11.40;99.90;;;;;;5054197;28;20435;-67
2022/09/14 05:07:56;;;;;;;0.40;0.40;;;11.50;99.90;;;;;;5054918;28;20456;-67
2022/09/14 05:10:46;;;;;;;0.40;0.40;;;11.60;99.90;;;;;;5054593;28;20537;-67
2022/09/14 05:13:35;;;;;;;0.40;0.40;;;11.70;99.90;;;;;;5053895;28;20523;-67
2022/09/14 05:16:25;;;;;;;0.40;0.40;;;11.70;99.90;;;;;;5055042;28;20790;-67
2022/09/14 05:19:16;;;;;;;0.50;0.50;;;11.80;99.90;;;;;;5054533;28;20442;-67
2022/09/14 05:22:04;;;;;;;0.40;0.40;;;11.90;99.90;;;;;;5054993;28;20420;-67
2022/09/14 05:24:52;;;;;;;0.40;0.40;;;11.90;99.90;;;;;;5054556;28;21025;-70
2022/09/14 05:27:42;;;;;;;0.40;0.40;;;12.00;99.90;;;;;;5054494;28;20505;-66
2022/09/14 05:30:30;;;;;;;0.40;0.40;;;12.10;99.90;;;;;;5054062;28;20996;-66
2022/09/14 05:33:18;;;;;;;0.40;0.40;;;12.10;99.90;;;;;;5054843;28;20440;-67
2022/09/14 05:36:08;;;;;;;0.50;0.50;;;12.20;99.90;;;;;;5054601;28;20471;-67
2022/09/14 05:38:57;;;;;;;0.40;0.40;;;12.40;99.90;;;;;;5054223;28;20436;-67
2022/09/14 05:41:48;;;;;;;0.40;0.40;;;12.50;99.90;;;;;;5054776;28;20515;-67
2022/09/14 05:44:37;;;;;;;0.40;0.40;;;12.60;99.90;;;;;;5054264;28;20582;-67
2022/09/14 05:47:25;;;;;;;0.40;0.40;;;12.70;99.90;;;;;;5054101;28;20452;-68
2022/09/14 05:50:14;;;;;;;0.40;0.40;;;12.80;99.90;;;;;;5053484;28;20546;-66
2022/09/14 05:53:02;;;;;;;0.40;0.40;;;12.80;99.90;;;;;;5054186;28;21026;-68
2022/09/14 05:55:59;;;;;;;0.40;0.40;;;13.00;99.90;;;;;;5042551;28;20891;-68
2022/09/14 05:58:47;;;;;;;0.40;0.40;;;13.00;99.90;;;;;;5039838;28;20424;-68
2022/09/14 06:01:37;;;;;;;0.50;0.50;;;13.10;99.90;;;;;;5025895;28;20761;-68
2022/09/14 06:04:26;;;;;;;0.40;0.40;;;13.20;99.90;;;;;;5030380;28;20468;-67
2022/09/14 06:07:14;;;;;;;0.40;0.40;;;13.20;99.90;;;;;;5033603;28;20428;-68
2022/09/14 06:10:06;;;;;;;0.50;0.50;;;13.30;99.90;;;;;;5014842;28;20981;-66
2022/09/14 06:12:55;;;;;;;0.40;0.40;;;13.40;99.90;;;;;;5031804;28;20445;-69
2022/09/14 06:15:43;;;;;;;0.40;0.40;;;13.40;99.90;;;;;;5033256;28;20496;-67
2022/09/14 06:18:34;;;;;;;0.40;0.40;;;13.50;99.90;;;;;;5032147;28;20428;-67
2022/09/14 06:21:23;;;;;;;0.50;0.50;;;13.60;99.90;;;;;;5032793;28;20941;-67
2022/09/14 06:24:12;;;;;;;0.40;0.40;;;13.60;99.90;;;;;;5031230;28;20532;-69
2022/09/14 06:27:00;;;;;;;0.50;0.50;;;13.70;99.90;;;;;;5032896;28;20429;-68
2022/09/14 06:29:50;;;;;;;0.40;0.40;;;13.70;99.90;;;;;;5031834;28;20488;-68
2022/09/14 06:32:39;;;;;;;0.40;0.40;;;13.70;99.90;;;;;;5031287;28;20449;-69
2022/09/14 06:35:28;;;;;;;0.40;0.40;;;13.80;99.90;;;;;;5031316;28;20422;-69
2022/09/14 06:38:16;;;;;;;0.40;0.40;;;13.90;99.90;;;;;;5030691;28;20559;-68
2022/09/14 06:41:06;;;;;;;0.83;0.83;;;14.00;99.90;;;;;;5023643;28;20509;-70
2022/09/14 06:43:57;;;;;;;1.50;0.80;;;14.10;99.90;;;;;;5040300;28;20448;-69
2022/09/14 06:46:45;;;;;;;0.40;0.40;;;;;;;;;;5015657;28;20970;-70
2022/09/14 06:49:34;;;;;;;0.60;0.60;;;14.40;99.90;;;;;;5014191;28;20426;-67
2022/09/14 06:52:24;;;;;;;0.40;0.40;;;14.50;99.90;;;;;;5029294;28;20428;-70
2022/09/14 06:55:12;;;;;;;0.40;0.40;;;14.50;99.90;;;;;;5033840;28;20588;-69
2022/09/14 06:58:00;;;;;;;0.87;0.77;;;14.60;99.90;;;;;;5033120;28;20587;-68
2022/09/14 07:00:48;;;;;;;0.60;0.60;;;14.60;99.90;;;;;;5039585;28;20531;-68
2022/09/14 07:03:37;;;;;;;1.00;1.00;;;14.70;99.90;;;;;;5033957;28;20878;-68
2022/09/14 07:06:27;;;;;;;0.40;0.40;;;14.70;99.90;;;;;;5033434;28;20909;-71
2022/09/14 07:09:18;;;;;;;0.50;0.50;;;14.70;99.90;;;;;;5032312;28;20464;-70
2022/09/14 07:12:08;;;;;;;0.40;0.40;;;14.70;99.90;;;;;;5021681;28;20602;-70
2022/09/14 07:14:56;;;;;;;0.40;0.40;;;14.70;99.90;;;;;;5030384;28;20921;-70
2022/09/14 07:17:44;;;;;;;0.40;0.40;;;14.80;99.90;;;;;;5016184;28;20546;-68
2022/09/14 07:20:33;;;;;;;0.70;0.70;;;14.90;99.90;;;;;;5033059;28;20639;-70
2022/09/14 07:23:21;;;;;;;0.40;0.40;;;15.10;99.90;;;;;;5033337;28;20443;-68
2022/09/14 07:26:13;;;;;;;0.40;0.40;;;15.40;99.90;;;;;;5020083;28;20846;-67
2022/09/14 07:29:05;;;;;;;0.40;0.40;;;15.40;99.90;;;;;;5013801;28;20528;-68
2022/09/14 07:31:53;;;;;;;0.40;0.40;;;15.40;99.90;;;;;;5018399;28;20552;-69
2022/09/14 07:34:42;;;;;;;0.40;0.40;;;15.40;99.90;;;;;;5033005;28;20542;-71
2022/09/14 07:37:30;;;;;;;1.00;1.00;;;15.50;99.90;;;;;;5030979;28;20633;-68
2022/09/14 07:40:18;;;;;;;0.40;0.40;;;15.50;99.90;;;;;;5032267;28;20572;-70
2022/09/14 07:43:08;;;;;;;0.40;0.40;;;15.70;99.90;;;;;;5032459;28;20348;-70
2022/09/14 07:45:56;;;;;;;0.40;0.40;;;15.90;99.90;;;;;;5022103;28;20433;-69
2022/09/14 07:48:26;;;;;;;1.30;1.30;;;16.10;99.90;;;;;;5031062;28;20637;-68
2022/09/14 07:50:59;;;;;;;0.40;0.40;;;16.30;99.90;;;;;;5029246;28;20213;-68
2022/09/14 07:53:27;;;;;;;0.63;0.63;;;16.50;99.90;;;;;;5014170;28;20549;-68
2022/09/14 07:55:59;;;;;;;0.40;0.40;;;16.50;99.90;;;;;;5021855;28;20431;-70
2022/09/14 07:58:29;;;;;;;0.60;0.60;;;16.40;99.90;;;;;;5033598;28;20252;-69
2022/09/14 08:01:01;;;;;;;0.43;0.43;;;16.50;99.90;;;;;;5033229;28;20202;-67
2022/09/14 08:03:30;;;;;;;0.77;0.77;;;16.60;99.90;;;;;;5033200;28;20257;-68
2022/09/14 08:06:00;;;;;;;0.40;0.40;;;16.60;99.90;;;;;;5033538;28;20527;-68
2022/09/14 08:08:29;;;;;;;1.37;1.27;;;16.80;99.90;;;;;;5034816;28;20201;-70
2022/09/14 08:11:04;;;;;;;1.27;1.27;;;17.00;99.90;;;;;;5035890;28;20214;-71
2022/09/14 08:13:35;;;;;;;0.40;0.40;;;17.00;99.90;;;;;;5033630;28;20231;-70
2022/09/14 08:16:03;;;;;;;0.40;0.40;;;17.10;99.90;;;;;;5039460;28;20205;-71
2022/09/14 08:18:34;;;;;;;0.40;0.40;;;17.20;99.90;;;;;;5046583;28;20237;-69
2022/09/14 08:21:06;;;;;;;0.40;0.40;;;17.30;99.90;;;;;;5053114;28;20202;-70
2022/09/14 08:23:35;;;;;;;0.40;0.40;;;17.30;99.90;;;;;;5035895;28;20226;-72
2022/09/14 08:26:04;;;;;;;0.40;0.40;;;17.40;99.90;;;;;;5032899;28;20198;-70
2022/09/14 08:28:34;;;;;;;0.40;0.40;;;17.60;99.90;;;;;;5033201;28;20198;-67
2022/09/14 08:31:04;;;;;;;0.40;0.40;;;17.70;99.90;;;;;;5031713;28;20252;-71
2022/09/14 08:33:34;;;;;;;0.40;0.40;;;17.90;99.90;;;;;;5033090;28;20226;-70
2022/09/14 08:36:02;;;;;;;0.40;0.40;;;17.90;99.90;;;;;;5032860;28;20198;-68
2022/09/14 08:38:30;;;;;;;0.45;0.45;;;18.00;99.90;;;;;;5032318;28;20571;-67
2022/09/14 08:41:09;;;;;;;0.40;0.40;;;18.00;99.90;;;;;;5026410;28;20278;-71
2022/09/14 08:43:39;;;;;;;0.40;0.40;;;18.10;99.90;;;;;;5024396;28;20264;-69
2022/09/14 08:46:14;;;;;;;0.40;0.40;;;18.30;99.90;;;;;;5041445;28;20251;-69
2022/09/14 08:48:47;;;;;;;0.40;0.40;;;18.40;99.90;;;;;;5052993;28;20254;-70
2022/09/14 08:51:16;;;;;;;0.40;0.40;;;18.60;99.90;;;;;;5052569;28;20236;-69
2022/09/14 08:53:45;;;;;;;0.40;0.40;;;18.80;99.90;;;;;;5052979;28;20267;-69
2022/09/14 08:56:17;;;;;;;0.40;0.40;;;18.80;99.90;;;;;;5052558;28;20206;-70
2022/09/14 08:59:09;;;;;;;0.40;0.40;;;18.90;99.90;;;;;;5030822;28;20246;-70
2022/09/14 09:01:44;;;;;;;0.40;0.40;;;18.90;99.90;;;;;;5026718;28;20198;-69
2022/09/14 09:04:27;;;;;;;0.40;0.40;;;19.00;99.90;;;;;;5048347;28;20287;-68
2022/09/14 09:07:01;;;;;;;0.40;0.40;;;19.10;99.90;;;;;;5042497;28;20193;-70
2022/09/14 09:09:38;;;;;;;0.40;0.40;;;19.00;99.90;;;;;;5031914;28;20193;-70
2022/09/14 09:12:07;;;;;;;0.40;0.40;;;18.90;99.90;;;;;;5026726;28;20225;-70
2022/09/14 09:14:40;;;;;;;0.40;0.40;;;18.80;99.90;;;;;;5022806;28;20218;-70
2022/09/14 09:17:15;;;;;;;0.40;0.40;;;18.70;99.90;;;;;;5022898;28;20226;-69
2022/09/14 09:19:55;;;;;;;0.40;0.40;;;18.70;99.90;;;;;;5029677;28;20201;-70
2022/09/14 09:22:28;;;;;;;0.40;0.40;;;18.70;99.90;;;;;;5032153;28;20198;-70
2022/09/14 09:24:59;;;;;;;0.40;0.40;;;18.60;99.90;;;;;;5032249;28;20205;-71
2022/09/14 09:27:27;;;;;;;0.40;0.40;;;18.50;99.90;;;;;;5034109;28;20198;-71
2022/09/14 09:29:56;;;;;;;0.40;0.40;;;18.30;99.90;;;;;;5038802;28;20197;-71
2022/09/14 09:32:25;;;;;;;0.40;0.40;;;18.40;99.90;;;;;;5023573;28;20302;-70
2022/09/14 09:34:53;;;;;;;0.40;0.40;;;18.40;99.90;;;;;;5024533;28;20202;-70
2022/09/14 09:37:23;;;;;;;0.40;0.40;;;18.60;99.90;;;;;;5027361;28;20241;-67
2022/09/14 09:39:51;;;;;;;0.40;0.40;;;18.70;99.90;;;;;;5032007;28;20248;-67
2022/09/14 09:42:22;;;;;;;0.40;0.40;;;18.90;99.90;;;;;;5032297;28;20198;-69
2022/09/14 09:44:57;;;;;;;0.40;0.40;;;19.10;99.90;;;;;;5032054;28;20213;-68
2022/09/14 09:47:33;;;;;;;0.40;0.40;;;19.10;99.90;;;;;;5024078;28;20280;-68
2022/09/14 09:50:03;;;;;;;0.40;0.40;;;18.90;99.90;;;;;;5020422;28;20195;-70
2022/09/14 09:52:33;;;;;;;3.50;0.95;;;19.00;99.90;;;;;;5021533;28;20206;-68
2022/09/14 09:55:05;;;;;;;0.40;0.40;;;19.00;99.90;;;;;;5024598;28;20366;-68
2022/09/14 09:57:35;;;;;;;0.40;0.40;;;18.90;99.90;;;;;;5030312;28;20229;-68
2022/09/14 10:00:21;;;;;;;0.40;0.40;;;19.10;99.90;;;;;;5024969;28;20214;-68
2022/09/14 10:02:54;;;;;;;0.40;0.40;;;19.20;99.90;;;;;;5029297;28;20244;-67
2022/09/14 10:05:24;;;;;;;0.40;0.40;;;19.30;99.90;;;;;;5022124;28;20198;-68
2022/09/14 10:07:55;;;;;;;0.40;0.40;;;19.20;99.90;;;;;;5028531;28;20206;-68
2022/09/14 10:10:26;;;;;;;0.40;0.40;;;19.20;99.90;;;;;;5025980;28;20209;-68
2022/09/14 10:12:56;;;;;;;0.40;0.40;;;19.20;99.90;;;;;;5025955;28;20309;-67
2022/09/14 10:15:29;;;;;;;0.40;0.40;;;19.30;99.90;;;;;;5022265;28;20245;-67
2022/09/14 10:18:07;;;;;;;0.40;0.40;;;19.40;99.90;;;;;;5023332;28;20256;-66
2022/09/14 10:20:37;;;;;;;0.40;0.40;;;19.60;99.90;;;;;;5023642;28;20236;-67
2022/09/14 10:23:23;;;;;;;0.77;0.77;;;19.70;99.90;;;;;;5022691;28;20329;-66
2022/09/14 10:25:53;;;;;;;0.50;0.50;;;19.80;99.90;;;;;;5026279;28;20249;-66
2022/09/14 10:28:23;;;;;;;0.40;0.40;;;19.80;99.90;;;;;;5025072;28;20202;-69
2022/09/14 10:30:59;;;;;;;0.40;0.40;;;19.90;99.90;;;;;;5025285;28;20285;-67
2022/09/14 10:33:35;;;;;;;0.40;0.40;;;19.80;99.90;;;;;;5033298;28;20240;-66
2022/09/14 10:36:13;;;;;;;0.40;0.40;;;19.90;99.90;;;;;;5036286;28;20198;-67
2022/09/14 10:38:45;;;;;;;0.40;0.40;;;19.90;99.90;;;;;;5036534;28;20312;-66
2022/09/14 10:41:24;;;;;;;0.40;0.40;;;19.80;99.90;;;;;;5035400;28;20206;-67
2022/09/14 10:44:31;;;;;;;0.40;0.40;;;19.90;99.90;;;;;;5034295;28;20225;-69
2022/09/14 10:47:37;;;;;;;0.40;0.40;;;19.70;99.90;;;;;;5015196;28;20202;-67
2022/09/14 10:50:21;;;;;;;1.48;0.98;;;19.60;99.90;;;;;;5015251;28;20206;-67
2022/09/14 10:53:00;;;;;;;0.50;0.50;;;19.60;99.90;;;;;;5016970;28;20230;-69
2022/09/14 10:55:35;;;;;;;0.40;0.40;;;19.50;99.90;;;;;;5035702;28;20193;-67
2022/09/14 10:58:17;;;;;;;0.40;0.40;;;19.50;99.90;;;;;;5020732;28;20281;-68
2022/09/14 11:01:02;;;;;;;0.40;0.40;;;19.50;99.90;;;;;;4999392;28;20206;-68
2022/09/14 11:03:43;;;;;;;0.40;0.40;;;19.40;99.90;;;;;;5015047;28;20218;-68
2022/09/14 11:06:24;;;;;;;0.40;0.40;;;19.30;99.90;;;;;;5027083;28;20202;-68
2022/09/14 11:08:59;;;;;;;0.40;0.40;;;19.20;99.90;;;;;;5046048;28;20205;-68
2022/09/14 11:11:44;;;;;;;0.40;0.40;;;19.40;99.90;;;;;;5034952;28;20202;-69
2022/09/14 11:14:41;;;;;;;0.40;0.40;;;19.60;99.90;;;;;;5031243;28;20241;-69
2022/09/14 11:17:48;;;;;;;0.40;0.40;;;19.50;99.90;;;;;;5034982;28;20582;-67
2022/09/14 11:20:47;;;;;;;0.40;0.40;;;19.50;99.90;;;;;;5012616;28;20207;-68
2022/09/14 11:23:47;;;;;;;0.65;0.65;;;19.40;99.90;;;;;;5016243;28;20210;-68
2022/09/14 11:26:38;;;;;;;0.40;0.40;;;19.60;99.90;;;;;;5034978;28;20222;-69
2022/09/14 11:29:33;;;;;;;0.40;0.40;;;19.50;99.90;;;;;;5033398;28;20194;-69
2022/09/14 11:32:26;;;;;;;0.40;0.40;;;19.40;99.90;;;;;;5034344;28;20241;-67
2022/09/14 11:35:19;;;;;;;0.40;0.40;;;19.40;99.90;;;;;;5034885;28;20282;-68
2022/09/14 11:38:16;;;;;;;0.40;0.40;;;19.50;99.90;;;;;;5032837;28;20285;-68
2022/09/14 11:41:16;;;;;;;0.40;0.40;;;19.80;99.90;;;;;;5033918;28;20234;-68
2022/09/14 11:44:11;;;;;;;0.40;0.40;;;20.00;99.90;;;;;;5015613;28;20277;-68
2022/09/14 11:47:03;;;;;;;0.40;0.40;;;20.30;99.90;;;;;;5015361;28;20203;-66
2022/09/14 11:49:58;;;;;;;0.40;0.40;;;20.70;99.90;;;;;;5026128;28;20256;-67
2022/09/14 11:52:48;;;;;;;0.40;0.40;;;20.90;99.90;;;;;;5035179;28;20627;-67
2022/09/14 11:55:40;;;;;;;0.40;0.40;;;21.10;99.90;;;;;;5036220;28;20275;-66
2022/09/14 11:58:29;;;;;;;0.40;0.40;;;21.20;99.90;;;;;;5034932;28;20204;-67
2022/09/14 12:01:27;;;;;;;0.80;0.80;;;21.30;99.90;;;;;;5027926;28;20218;-67
2022/09/14 12:04:17;;;;;;;0.40;0.40;;;21.10;99.90;;;;;;5025189;28;20241;-67
2022/09/14 12:07:05;;;;;;;0.68;0.68;;;20.80;99.90;;;;;;5032193;28;20234;-68
2022/09/14 12:09:53;;;;;;;4.32;3.33;;;20.70;99.90;;;;;;5032977;28;20288;-67
2022/09/14 12:12:44;;;;;;;0.40;0.40;;;20.50;99.90;;;;;;5031528;28;20714;-68
2022/09/14 12:15:34;;;;;;;0.40;0.40;;;20.60;99.90;;;;;;5033255;28;20202;-67
2022/09/14 12:18:24;;;;;;;0.50;0.50;;;20.70;99.90;;;;;;5037255;28;20243;-67
2022/09/14 12:21:21;;;;;;;0.47;0.47;;;20.80;99.90;;;;;;5049889;28;20289;-68
2022/09/14 12:24:14;;;;;;;0.60;0.60;;;21.00;99.90;;;;;;5062829;28;20217;-67
2022/09/14 12:27:15;;;;;;;0.40;0.40;;;21.00;99.90;;;;;;5032329;28;20202;-67
2022/09/14 12:30:54;;;;;;;0.52;0.50;;;21.20;99.90;;;;;;5034945;28;20206;-67
2022/09/14 12:34:02;;;;;;;0.40;0.40;;;21.20;99.90;;;;;;5034657;28;20237;-68
2022/09/14 12:37:26;;;;;;;0.40;0.40;;;21.30;99.90;;;;;;5034275;28;20212;-67
2022/09/14 12:40:37;;;;;;;2.15;1.95;;;21.50;99.90;;;;;;5034072;28;20201;-68
2022/09/14 12:43:51;;;;;;;0.70;0.52;;;21.80;99.90;;;;;;5034567;28;20695;-68
2022/09/14 12:46:40;;;;;;;0.40;0.40;;;21.50;99.90;;;;;;5033237;28;20204;-68
2022/09/14 12:49:35;;;;;;;0.40;0.40;;;21.40;99.90;;;;;;5033384;28;20198;-67
2022/09/14 12:52:35;;;;;;;0.40;0.40;;;21.60;99.90;;;;;;5035077;28;20270;-66
2022/09/14 12:55:55;;;;;;;0.50;0.50;;;21.60;99.90;;;;;;5035006;28;20233;-67
2022/09/14 12:58:58;;;;;;;0.40;0.40;;;21.40;99.90;;;;;;5014994;28;20249;-66
2022/09/14 13:02:01;;;;;;;0.40;0.40;;;21.30;99.90;;;;;;5013501;28;20679;-67
2022/09/14 13:04:52;;;;;;;0.40;0.40;;;21.50;99.90;;;;;;5014085;28;20254;-68
2022/09/14 13:07:41;;;;;;;0.50;0.50;;;21.80;99.90;;;;;;5014650;28;20350;-67
2022/09/14 13:10:32;;;;;;;0.40;0.40;;;21.80;99.90;;;;;;5013495;28;20199;-66
2022/09/14 13:13:26;;;;;;;0.40;0.40;;;21.90;99.90;;;;;;5014667;28;20340;-67
2022/09/14 13:16:19;;;;;;;0.40;0.40;;;21.60;99.90;;;;;;5014348;28;20206;-67
2022/09/14 13:19:21;;;;;;;0.40;0.40;;;21.50;99.90;;;;;;5031057;28;20193;-68
2022/09/14 13:22:18;;;;;;;0.40;0.40;;;21.30;99.90;;;;;;5046438;28;20226;-66
2022/09/14 13:25:25;;;;;;;0.40;0.40;;;21.20;99.90;;;;;;5030019;28;20287;-67
2022/09/14 13:28:16;;;;;;;0.40;0.40;;;21.20;99.90;;;;;;5032900;28;20201;-67
2022/09/14 13:31:05;;;;;;;0.60;0.50;;;20.90;99.90;;;;;;5031926;28;20284;-67
2022/09/14 13:33:55;;;;;;;0.40;0.40;;;20.80;99.90;;;;;;5034517;28;20710;-67
2022/09/14 13:36:44;;;;;;;2.42;1.48;;;20.50;99.90;;;;;;5040839;28;20205;-67
2022/09/14 13:39:35;;;;;;;0.40;0.40;;;20.50;99.90;;;;;;5021060;28;20697;-68
2022/09/14 13:42:24;;;;;;;0.40;0.40;;;20.30;99.90;;;;;;5020139;28;20202;-67
2022/09/14 13:45:13;;;;;;;0.40;0.40;;;20.30;99.90;;;;;;5021765;28;20269;-67
2022/09/14 13:48:01;;;;;;;0.40;0.40;;;20.30;99.90;;;;;;5022660;28;20260;-67
2022/09/14 13:50:52;;;;;;;0.85;0.55;;;20.30;99.90;;;;;;5021095;28;20293;-67
2022/09/14 13:53:47;;;;;;;0.40;0.40;;;20.20;99.90;;;;;;5023049;28;20229;-68
2022/09/14 13:56:35;;;;;;;0.40;0.40;;;20.10;99.90;;;;;;5021414;28;20281;-68
2022/09/14 13:59:23;;;;;;;0.90;0.90;;;20.10;99.90;;;;;;5023414;28;20201;-68
2022/09/14 14:02:13;;;;;;;0.40;0.40;;;20.00;99.90;;;;;;5025767;28;20269;-68
2022/09/14 14:05:02;;;;;;;0.40;0.40;;;20.10;99.90;;;;;;5026635;28;20197;-68
2022/09/14 14:07:50;;;;;;;0.40;0.40;;;20.20;99.90;;;;;;5026093;28;20261;-69
2022/09/14 14:10:47;;;;;;;0.40;0.40;;;20.20;99.90;;;;;;5025560;28;20210;-68
2022/09/14 14:13:37;;;;;;;0.43;0.43;;;20.20;99.90;;;;;;5025072;28;20226;-68
2022/09/14 14:16:26;;;;;;;0.40;0.40;;;20.00;99.90;;;;;;5025012;28;20313;-70
2022/09/14 14:19:32;;;;;;;0.40;0.40;;;19.80;99.90;;;;;;5025756;28;20276;-69
2022/09/14 14:22:23;;;;;;;0.40;0.40;;;19.60;99.90;;;;;;5026128;28;20203;-70
2022/09/14 14:25:30;;;;;;;0.40;0.40;;;19.60;99.90;;;;;;5025691;28;20229;-72
2022/09/14 14:28:25;;;;;;;0.40;0.40;;;19.50;99.90;;;;;;5024787;28;20220;-69
2022/09/14 14:31:15;;;;;;;0.40;0.40;;;19.30;99.90;;;;;;5026341;28;20198;-68
2022/09/14 14:34:16;;;;;;;0.40;0.40;;;19.20;99.90;;;;;;5026597;28;20576;-68